Three Notch, Alabama
Current Conditions -  °F | °C
As of 11:58 PM on Tuesday 27 Jan 2015 (Local Time) from KEUF Reporting Station
Clear Clear  
Wind Chill: 40°   Ceiling: Unl
Heat Index: 40°   Visibility: 10mi
Dew Point: 30°   Wind: 3mph
Humidity: 68%   Direction: 330°NNW
Pressure: 30.13"   Gusts: NA
Location:  32.1076°N, 85.5256°W
Report Text: KEUF 280558Z AUTO 33003KT 10SM CLR 04/M01 A3013 RMK AO2 SLP201 T00441011 10117 20022 401671022 53010
Loading
Personal Weather Stations






























Interactive Weather Map New forecast layout! Learn more

10-Day Weather Forecast

Advertisements
Track Severe Weather on mobile